Time;durP1;ratioP1;P1;durP2;ratioP2;P2;SDS_P1;SDS_P2;PMS_P1;PMS_P2;Temp;Humidity;BMP_temperature;BMP_pressure;BME280_temperature;BME280_humidity;BME280_pressure;Samples;Min_cycle;Max_cycle;Signal;HPM_P1;HPM_P2
2024/01/10 00:02:24;;;;;;;17.23;15.63;;;-6.20;65.70;;;;;;5096470;28;20659;-63
2024/01/10 00:04:50;;;;;;;17.13;15.33;;;-6.30;68.00;;;;;;5096204;28;20239;-63
2024/01/10 00:07:16;;;;;;;18.03;16.23;;;-6.30;73.90;;;;;;5095702;28;20196;-63
2024/01/10 00:09:41;;;;;;;17.37;15.50;;;-6.40;68.20;;;;;;5096349;28;20177;-62
2024/01/10 00:12:07;;;;;;;17.03;15.37;;;-6.40;78.50;;;;;;5094994;28;20212;-63
2024/01/10 00:14:33;;;;;;;19.20;16.60;;;-6.50;74.50;;;;;;5095638;28;20264;-63
2024/01/10 00:16:59;;;;;;;16.53;14.93;;;-6.60;75.40;;;;;;5095959;28;20188;-62
2024/01/10 00:19:25;;;;;;;17.97;16.20;;;-6.60;85.40;;;;;;5096115;28;20212;-63
2024/01/10 00:21:50;;;;;;;20.20;16.70;;;-6.70;80.80;;;;;;5095595;28;20223;-63
2024/01/10 00:24:16;;;;;;;18.70;15.13;;;-6.80;99.90;;;;;;5095415;28;20181;-62
2024/01/10 00:26:42;;;;;;;17.10;15.47;;;-6.70;94.80;;;;;;5095061;28;20216;-62
2024/01/10 00:29:07;;;;;;;20.07;15.23;;;-6.70;99.90;;;;;;5095047;28;20654;-62
2024/01/10 00:31:33;;;;;;;16.97;15.27;;;-6.60;99.60;;;;;;5095442;28;20598;-63
2024/01/10 00:33:59;;;;;;;17.43;15.63;;;-6.70;99.90;;;;;;5095522;28;20256;-62
2024/01/10 00:36:26;;;;;;;17.57;15.83;;;-6.70;99.90;;;;;;5095670;28;20223;-63
2024/01/10 00:38:51;;;;;;;17.60;15.80;;;-6.80;99.90;;;;;;5094995;28;20199;-63
2024/01/10 00:41:17;;;;;;;17.73;15.83;;;-6.90;99.90;;;;;;5094733;28;20177;-62
2024/01/10 00:43:43;;;;;;;17.37;15.70;;;-6.90;99.90;;;;;;5094521;28;20184;-62
2024/01/10 00:46:09;;;;;;;18.73;16.83;;;-6.90;99.90;;;;;;5094839;28;20180;-63
2024/01/10 00:48:35;;;;;;;16.67;14.83;;;-6.90;99.90;;;;;;5095001;28;20638;-62
2024/01/10 00:51:00;;;;;;;17.97;16.23;;;-6.80;99.90;;;;;;5094403;28;20209;-63
2024/01/10 00:53:26;;;;;;;17.50;15.70;;;-6.80;99.90;;;;;;5095114;28;20169;-62
2024/01/10 00:55:52;;;;;;;20.10;16.73;;;-6.90;99.90;;;;;;5094909;28;20263;-62
2024/01/10 00:58:18;;;;;;;18.30;15.27;;;-7.10;99.90;;;;;;5094503;28;20258;-62
2024/01/10 01:00:44;;;;;;;17.10;15.37;;;-7.10;99.90;;;;;;5093106;28;20246;-63
2024/01/10 01:03:10;;;;;;;17.80;15.87;;;-7.10;99.90;;;;;;5095090;28;20262;-63
2024/01/10 01:05:35;;;;;;;17.90;16.03;;;-7.10;99.90;;;;;;5094758;28;20537;-62
2024/01/10 01:08:01;;;;;;;24.83;16.47;;;-7.00;99.90;;;;;;5094170;28;20197;-62
2024/01/10 01:10:27;;;;;;;18.00;16.10;;;-7.00;99.90;;;;;;5094795;28;20165;-63
2024/01/10 01:12:52;;;;;;;17.80;16.10;;;-7.00;99.90;;;;;;5094612;28;20185;-62
2024/01/10 01:15:18;;;;;;;17.40;15.67;;;-6.90;99.90;;;;;;5094616;28;20157;-63
2024/01/10 01:17:44;;;;;;;16.53;14.70;;;-7.00;99.90;;;;;;5094396;28;20189;-62
2024/01/10 01:20:10;;;;;;;18.90;16.93;;;-7.00;99.90;;;;;;5094290;28;20573;-62
2024/01/10 01:22:35;;;;;;;21.00;16.13;;;-7.00;99.90;;;;;;5093904;28;20210;-63
2024/01/10 01:25:02;;;;;;;17.67;15.77;;;-7.00;99.90;;;;;;5094324;28;20193;-63
2024/01/10 01:27:28;;;;;;;18.33;16.50;;;-7.10;99.90;;;;;;5092972;28;20201;-62
2024/01/10 01:29:53;;;;;;;17.00;15.20;;;-7.20;99.90;;;;;;5093297;28;20181;-62
2024/01/10 01:32:19;;;;;;;18.20;16.07;;;-7.20;99.90;;;;;;5094186;28;20291;-62
2024/01/10 01:34:45;;;;;;;16.90;15.30;;;-7.10;99.90;;;;;;5094242;28;20248;-63
2024/01/10 01:37:11;;;;;;;16.57;15.03;;;-7.10;99.90;;;;;;5094376;28;20193;-62
2024/01/10 01:39:36;;;;;;;17.07;15.30;;;-7.20;99.90;;;;;;5094079;28;20177;-63
2024/01/10 01:42:03;;;;;;;18.20;16.30;;;-7.20;99.90;;;;;;5094056;28;20184;-63
2024/01/10 01:44:29;;;;;;;17.30;14.83;;;-7.20;99.90;;;;;;5094019;28;20170;-62
2024/01/10 01:46:55;;;;;;;17.03;15.40;;;-7.30;99.90;;;;;;5094198;28;20272;-63
2024/01/10 01:49:21;;;;;;;17.90;16.10;;;-7.30;99.90;;;;;;5093972;28;20175;-62
2024/01/10 01:51:47;;;;;;;17.00;15.30;;;-7.20;99.90;;;;;;5093721;28;20205;-62
2024/01/10 01:54:14;;;;;;;18.27;16.37;;;-7.20;99.90;;;;;;5093952;28;20173;-63
2024/01/10 01:56:40;;;;;;;17.63;15.80;;;-7.30;99.90;;;;;;5093826;28;20188;-63
2024/01/10 01:59:06;;;;;;;16.50;15.07;;;-7.20;99.90;;;;;;5093949;28;20264;-63
2024/01/10 02:01:32;;;;;;;17.73;15.90;;;-7.30;99.90;;;;;;5093353;28;20173;-62
2024/01/10 02:04:00;;;;;;;16.40;14.67;;;-7.30;99.90;;;;;;5094103;28;20176;-63
2024/01/10 02:06:26;;;;;;;18.93;16.33;;;-7.30;99.90;;;;;;5093818;28;20191;-63
2024/01/10 02:08:52;;;;;;;20.20;15.30;;;-7.30;99.90;;;;;;5093251;28;20571;-62
2024/01/10 02:11:18;;;;;;;16.97;15.27;;;-7.30;99.90;;;;;;5093477;28;20199;-62
2024/01/10 02:13:45;;;;;;;16.77;15.03;;;-7.30;99.90;;;;;;5094344;28;20181;-62
2024/01/10 02:16:11;;;;;;;16.70;15.00;;;-7.40;99.90;;;;;;5093543;28;20265;-63
2024/01/10 02:18:38;;;;;;;18.37;15.43;;;-7.30;99.90;;;;;;5093844;28;20165;-62
2024/01/10 02:21:04;;;;;;;16.70;15.20;;;-7.30;99.90;;;;;;5093711;28;20173;-63
2024/01/10 02:23:29;;;;;;;15.73;14.40;;;-7.30;99.90;;;;;;5093689;28;20669;-63
2024/01/10 02:25:55;;;;;;;21.00;17.43;;;-7.30;99.90;;;;;;5094298;28;20181;-62
2024/01/10 02:28:23;;;;;;;17.20;15.50;;;-7.30;99.90;;;;;;5093424;28;20236;-62
2024/01/10 02:30:50;;;;;;;16.80;15.20;;;-7.30;99.90;;;;;;5093259;28;20169;-63
2024/01/10 02:33:16;;;;;;;17.27;15.37;;;-7.40;99.90;;;;;;5093991;28;20173;-63
2024/01/10 02:35:42;;;;;;;19.27;16.30;;;-7.50;99.90;;;;;;5098194;28;20694;-63
2024/01/10 02:38:07;;;;;;;20.27;17.37;;;-7.50;99.90;;;;;;5097709;28;20692;-63
2024/01/10 02:40:33;;;;;;;18.00;15.90;;;-7.50;99.90;;;;;;5097429;28;20541;-63
2024/01/10 02:42:59;;;;;;;17.77;16.00;;;-7.50;99.90;;;;;;5097451;28;20236;-62
2024/01/10 02:45:25;;;;;;;17.77;16.00;;;-7.60;99.90;;;;;;5096604;28;20629;-63
2024/01/10 02:47:51;;;;;;;17.13;15.63;;;-7.70;99.90;;;;;;5096853;28;20735;-62
2024/01/10 02:50:16;;;;;;;18.50;16.73;;;-7.70;99.90;;;;;;5095413;28;20195;-62
2024/01/10 02:52:42;;;;;;;17.27;15.47;;;-7.60;99.90;;;;;;5096953;28;20196;-62
2024/01/10 02:55:08;;;;;;;17.63;16.03;;;-7.60;99.90;;;;;;5097150;28;20249;-62
2024/01/10 02:57:34;;;;;;;21.50;17.70;;;-7.60;99.90;;;;;;5097487;28;20201;-63
2024/01/10 03:00:00;;;;;;;20.00;17.90;;;-7.50;99.90;;;;;;5097389;28;20203;-62
2024/01/10 03:02:25;;;;;;;19.00;16.87;;;-7.50;99.90;;;;;;5095672;28;20177;-62
2024/01/10 03:04:51;;;;;;;20.37;16.33;;;-7.60;99.90;;;;;;5097068;28;20222;-63
2024/01/10 03:07:17;;;;;;;17.87;15.73;;;-7.50;99.90;;;;;;5096837;28;20238;-63
2024/01/10 03:09:43;;;;;;;19.53;17.43;;;-7.70;99.90;;;;;;5096996;28;20184;-63
2024/01/10 03:12:11;;;;;;;22.03;18.93;;;-7.80;99.90;;;;;;5096602;28;20201;-63
2024/01/10 03:14:36;;;;;;;18.50;16.67;;;-7.90;99.90;;;;;;5096224;28;20210;-61
2024/01/10 03:17:02;;;;;;;17.90;16.00;;;-7.90;99.90;;;;;;5096455;28;20188;-62
2024/01/10 03:19:28;;;;;;;17.20;15.73;;;-7.80;99.90;;;;;;5097230;28;20165;-62
2024/01/10 03:21:54;;;;;;;18.10;16.20;;;-7.80;99.90;;;;;;5096948;28;20173;-63
2024/01/10 03:24:20;;;;;;;19.43;17.53;;;-7.80;99.90;;;;;;5096370;28;20170;-63
2024/01/10 03:26:45;;;;;;;19.37;16.57;;;-7.80;99.90;;;;;;5096260;28;20207;-62
2024/01/10 03:29:11;;;;;;;19.07;17.03;;;-7.80;99.90;;;;;;5095816;28;20177;-63
2024/01/10 03:31:37;;;;;;;19.13;17.23;;;-7.90;99.90;;;;;;5096023;28;20193;-62
2024/01/10 03:34:03;;;;;;;22.03;17.97;;;-7.80;99.90;;;;;;5095452;28;20176;-62
2024/01/10 03:36:29;;;;;;;19.40;16.37;;;-7.80;99.90;;;;;;5095086;28;20221;-62
2024/01/10 03:38:55;;;;;;;18.70;16.87;;;-7.90;99.90;;;;;;5096502;28;20197;-62
2024/01/10 03:41:21;;;;;;;18.73;16.80;;;-7.90;99.90;;;;;;5096103;28;20610;-63
2024/01/10 03:43:47;;;;;;;18.53;16.07;;;-7.80;99.90;;;;;;5096397;28;20222;-62
2024/01/10 03:46:13;;;;;;;18.73;16.07;;;-7.80;99.90;;;;;;5095618;28;20169;-62
2024/01/10 03:48:47;;;;;;;18.70;16.83;;;-7.80;99.90;;;;;;5096273;28;20710;-63
2024/01/10 03:51:17;;;;;;;24.40;17.27;;;-7.80;99.90;;;;;;5095689;28;20230;-63
2024/01/10 03:53:44;;;;;;;21.63;17.73;;;-7.80;99.90;;;;;;5096552;28;20201;-62
2024/01/10 03:56:10;;;;;;;19.20;16.50;;;-7.80;99.90;;;;;;5095965;28;20169;-62
2024/01/10 03:58:35;;;;;;;20.17;15.73;;;-7.80;99.90;;;;;;5095871;28;20245;-63
2024/01/10 04:01:08;;;;;;;18.67;16.83;;;-7.80;99.90;;;;;;5095794;28;20173;-62
2024/01/10 04:03:35;;;;;;;21.40;17.77;;;-7.70;99.90;;;;;;5094496;28;20185;-62
2024/01/10 04:06:01;;;;;;;19.23;16.87;;;-7.80;99.90;;;;;;5094662;28;20173;-62
2024/01/10 04:08:27;;;;;;;19.60;16.90;;;-7.80;99.90;;;;;;5096021;28;20230;-62
2024/01/10 04:10:53;;;;;;;19.77;17.00;;;-7.70;99.90;;;;;;5095665;28;20173;-63
2024/01/10 04:13:19;;;;;;;20.73;18.07;;;-7.70;99.90;;;;;;5095074;28;20638;-63
2024/01/10 04:15:44;;;;;;;19.13;17.23;;;-7.80;99.90;;;;;;5095217;28;20172;-63
2024/01/10 04:18:10;;;;;;;19.83;17.57;;;-7.90;99.90;;;;;;5095522;28;20197;-63
2024/01/10 04:20:36;;;;;;;18.30;16.60;;;-8.00;99.90;;;;;;5095447;28;20680;-63
2024/01/10 04:23:02;;;;;;;18.97;17.30;;;-8.00;99.90;;;;;;5095507;28;20175;-63
2024/01/10 04:25:28;;;;;;;18.73;16.80;;;-7.90;99.90;;;;;;5095487;28;20196;-62
2024/01/10 04:27:55;;;;;;;19.10;17.27;;;-8.00;99.90;;;;;;5095245;28;20689;-63
2024/01/10 04:30:21;;;;;;;19.93;16.30;;;-7.90;99.90;;;;;;5095354;28;20184;-62
2024/01/10 04:32:46;;;;;;;18.20;16.47;;;-7.80;99.90;;;;;;5095368;28;20201;-62
2024/01/10 04:35:12;;;;;;;18.73;16.83;;;-7.80;99.90;;;;;;5096153;28;20161;-62
2024/01/10 04:37:38;;;;;;;18.57;16.77;;;-7.80;99.90;;;;;;5094999;28;20234;-63
2024/01/10 04:40:05;;;;;;;18.10;16.40;;;-7.70;99.90;;;;;;5094965;28;20681;-63
2024/01/10 04:42:31;;;;;;;18.70;16.90;;;-7.80;99.90;;;;;;5095003;28;20178;-62
2024/01/10 04:44:56;;;;;;;20.47;17.10;;;-7.90;99.90;;;;;;5094654;28;20173;-62
2024/01/10 04:47:22;;;;;;;19.07;16.83;;;-7.90;99.90;;;;;;5094801;28;20188;-63
2024/01/10 04:49:48;;;;;;;18.27;16.47;;;-7.90;99.90;;;;;;5095483;28;20244;-63
2024/01/10 04:52:14;;;;;;;18.13;16.47;;;-8.00;99.90;;;;;;5094098;28;20262;-63
2024/01/10 04:54:39;;;;;;;21.27;17.50;;;-8.10;99.90;;;;;;5094760;28;20188;-62
2024/01/10 04:57:05;;;;;;;20.43;18.23;;;-8.20;99.90;;;;;;5094029;28;20545;-62
2024/01/10 04:59:31;;;;;;;19.93;17.83;;;-8.20;99.90;;;;;;5094627;28;20256;-62
2024/01/10 05:01:57;;;;;;;20.47;18.60;;;-8.10;99.90;;;;;;5094353;28;20176;-63
2024/01/10 05:04:23;;;;;;;19.20;17.40;;;-8.00;99.90;;;;;;5094627;28;20230;-62
2024/01/10 05:06:48;;;;;;;18.43;16.53;;;-8.00;99.90;;;;;;5094804;28;20196;-63
2024/01/10 05:09:14;;;;;;;20.83;18.90;;;-8.00;99.90;;;;;;5094550;28;20174;-63
2024/01/10 05:11:40;;;;;;;19.93;18.00;;;-8.10;99.90;;;;;;5094314;28;20737;-63
2024/01/10 05:14:06;;;;;;;19.53;17.47;;;-8.10;99.90;;;;;;5094452;28;20181;-63
2024/01/10 05:16:32;;;;;;;18.80;17.00;;;-8.10;99.90;;;;;;5093888;28;20196;-62
2024/01/10 05:19:03;;;;;;;20.10;18.10;;;-8.00;99.90;;;;;;5094583;28;20634;-63
2024/01/10 05:21:30;;;;;;;18.93;17.03;;;-8.00;99.90;;;;;;5094316;28;20157;-62
2024/01/10 05:23:56;;;;;;;20.83;18.43;;;-8.10;99.90;;;;;;5093775;28;20192;-63
2024/01/10 05:26:21;;;;;;;20.33;18.23;;;-8.10;99.90;;;;;;5094255;28;20219;-62
2024/01/10 05:28:47;;;;;;;22.73;17.57;;;-8.00;99.90;;;;;;5094309;28;20184;-62
2024/01/10 05:31:13;;;;;;;20.67;16.47;;;-8.00;99.90;;;;;;5093824;28;20204;-68
2024/01/10 05:33:38;;;;;;;19.60;17.77;;;-8.00;99.90;;;;;;5093525;28;20253;-63
2024/01/10 05:36:04;;;;;;;20.67;18.67;;;-7.90;99.90;;;;;;5094225;28;20173;-63
2024/01/10 05:38:30;;;;;;;19.93;17.87;;;-7.80;99.90;;;;;;5094168;28;20169;-63
2024/01/10 05:40:56;;;;;;;22.70;18.33;;;-7.80;99.90;;;;;;5094084;28;20546;-62
2024/01/10 05:43:22;;;;;;;20.13;18.10;;;-7.80;99.90;;;;;;5094024;28;20169;-63
2024/01/10 05:45:47;;;;;;;22.30;19.17;;;-7.80;99.90;;;;;;5093961;28;20260;-63
2024/01/10 05:48:13;;;;;;;20.63;18.47;;;-7.70;99.90;;;;;;5093642;28;20192;-63
2024/01/10 05:50:39;;;;;;;23.23;19.60;;;-7.60;99.90;;;;;;5093664;28;20196;-63
2024/01/10 05:53:05;;;;;;;21.33;19.03;;;-7.60;99.90;;;;;;5093848;28;20171;-63
2024/01/10 05:55:31;;;;;;;22.37;20.27;;;-7.70;99.90;;;;;;5093880;28;20193;-62
2024/01/10 05:57:57;;;;;;;22.07;18.83;;;-7.70;99.90;;;;;;5093643;28;20745;-63
2024/01/10 06:00:22;;;;;;;22.10;19.73;;;-7.80;99.90;;;;;;5093231;28;20256;-63
2024/01/10 06:02:48;;;;;;;26.97;18.67;;;-7.80;99.90;;;;;;5094091;28;20201;-62
2024/01/10 06:05:14;;;;;;;22.10;18.20;;;-7.70;99.90;;;;;;5092677;28;20181;-62
2024/01/10 06:07:41;;;;;;;22.30;19.80;;;-7.60;99.90;;;;;;5095114;28;20199;-63
2024/01/10 06:10:07;;;;;;;22.57;19.53;;;-7.60;99.90;;;;;;5097930;28;20233;-63
2024/01/10 06:12:33;;;;;;;24.80;19.10;;;-7.60;99.90;;;;;;5095922;28;20203;-62
2024/01/10 06:14:59;;;;;;;22.23;18.90;;;-7.70;99.90;;;;;;5097809;28;20612;-62
2024/01/10 06:17:24;;;;;;;20.93;18.87;;;-7.60;99.90;;;;;;5097471;28;20233;-62
2024/01/10 06:19:50;;;;;;;21.33;18.43;;;-7.60;99.90;;;;;;5098776;28;20176;-63
2024/01/10 06:22:17;;;;;;;23.47;19.40;;;-7.60;99.90;;;;;;5098377;28;20241;-62
2024/01/10 06:24:43;;;;;;;24.53;19.20;;;-7.60;99.90;;;;;;5098003;28;20177;-63
2024/01/10 06:27:10;;;;;;;21.57;19.33;;;-7.50;99.90;;;;;;5098346;28;20200;-62
2024/01/10 06:29:36;;;;;;;20.93;18.13;;;-7.50;99.90;;;;;;5097381;28;20191;-62
2024/01/10 06:32:06;;;;;;;21.13;18.60;;;-7.60;99.90;;;;;;5098101;28;20217;-62
2024/01/10 06:34:32;;;;;;;20.83;18.77;;;-7.60;99.90;;;;;;5097916;28;20165;-62
2024/01/10 06:36:58;;;;;;;25.50;18.97;;;-7.70;99.90;;;;;;5096642;28;20197;-62
2024/01/10 06:39:24;;;;;;;19.73;17.73;;;-7.70;99.90;;;;;;5098145;28;20169;-62
2024/01/10 06:41:50;;;;;;;20.83;17.73;;;-7.80;99.90;;;;;;5097881;28;20252;-63
2024/01/10 06:44:19;;;;;;;23.90;18.30;;;-7.80;99.90;;;;;;5097643;28;20538;-63
2024/01/10 06:46:45;;;;;;;26.10;19.03;;;-7.70;99.90;;;;;;5096607;28;20205;-62
2024/01/10 06:49:11;;;;;;;26.13;19.80;;;-7.70;99.90;;;;;;5097635;28;20165;-63
2024/01/10 06:51:37;;;;;;;19.83;17.67;;;-7.70;99.90;;;;;;5097095;28;20591;-63
2024/01/10 06:54:04;;;;;;;20.17;18.23;;;-7.60;99.90;;;;;;5096834;28;20172;-63
2024/01/10 06:56:33;;;;;;;19.97;17.97;;;-7.60;99.90;;;;;;5096833;28;20211;-63
2024/01/10 06:59:00;;;;;;;23.77;19.70;;;-7.50;99.90;;;;;;5097106;28;20226;-62
2024/01/10 07:01:26;;;;;;;22.80;19.70;;;-7.50;99.90;;;;;;5096846;28;20257;-62
2024/01/10 07:03:52;;;;;;;19.73;17.70;;;-7.50;99.90;;;;;;5097130;28;20260;-63
2024/01/10 07:06:18;;;;;;;21.97;19.63;;;-7.50;99.90;;;;;;5097125;28;20174;-63
2024/01/10 07:08:46;;;;;;;22.37;20.03;;;-7.50;99.90;;;;;;5096850;28;20184;-63
2024/01/10 07:11:12;;;;;;;22.30;18.17;;;-7.50;99.90;;;;;;5096540;28;20266;-63
2024/01/10 07:13:37;;;;;;;21.67;19.27;;;-7.40;99.90;;;;;;5096615;28;20633;-63
2024/01/10 07:16:03;;;;;;;20.37;18.23;;;-7.40;99.90;;;;;;5096487;28;20223;-62
2024/01/10 07:18:30;;;;;;;20.93;18.77;;;-7.40;99.90;;;;;;5096666;28;20199;-63
2024/01/10 07:20:56;;;;;;;26.40;20.73;;;-7.40;99.90;;;;;;5095850;28;20173;-62
2024/01/10 07:23:22;;;;;;;26.70;19.73;;;-7.40;99.90;;;;;;5096305;28;20173;-63
2024/01/10 07:25:49;;;;;;;26.23;20.13;;;-7.50;99.90;;;;;;5096952;28;20173;-62
2024/01/10 07:28:16;;;;;;;25.80;20.73;;;-7.50;99.90;;;;;;5095555;28;20212;-62
2024/01/10 07:30:41;;;;;;;24.80;21.20;;;-7.50;99.90;;;;;;5095792;28;20184;-62
2024/01/10 07:33:07;;;;;;;26.17;21.50;;;-7.50;99.90;;;;;;5096577;28;20185;-62
2024/01/10 07:35:33;;;;;;;28.73;22.00;;;-7.60;99.90;;;;;;5096075;28;20266;-63
2024/01/10 07:37:59;;;;;;;29.67;21.33;;;-7.60;99.90;;;;;;5095706;28;20197;-63
2024/01/10 07:40:25;;;;;;;23.63;21.03;;;-7.50;99.90;;;;;;5096285;28;20181;-63
2024/01/10 07:42:51;;;;;;;27.57;21.37;;;-7.60;99.90;;;;;;5095006;28;20714;-62
2024/01/10 07:45:17;;;;;;;27.20;20.97;;;-7.60;99.90;;;;;;5096566;28;20244;-63
2024/01/10 07:47:42;;;;;;;21.60;19.60;;;-7.60;99.90;;;;;;5096078;28;20193;-63
2024/01/10 07:50:10;;;;;;;23.87;21.47;;;-7.50;99.90;;;;;;5096359;28;20162;-62
2024/01/10 07:52:36;;;;;;;24.90;20.20;;;-7.40;99.90;;;;;;5096089;28;20213;-63
2024/01/10 07:55:04;;;;;;;24.37;20.43;;;-7.30;99.90;;;;;;5096051;28;20157;-62
2024/01/10 07:57:31;;;;;;;25.30;20.33;;;-7.40;99.90;;;;;;5096275;28;20217;-63
2024/01/10 07:59:56;;;;;;;25.57;19.13;;;-7.40;99.90;;;;;;5095919;28;20166;-63
2024/01/10 08:02:23;;;;;;;25.20;19.23;;;-7.40;99.90;;;;;;5095792;28;20164;-63
2024/01/10 08:04:49;;;;;;;27.83;21.30;;;-7.40;99.90;;;;;;5096047;28;20165;-63
2024/01/10 08:07:15;;;;;;;24.13;20.30;;;-7.30;99.90;;;;;;5096010;28;20197;-63
2024/01/10 08:09:41;;;;;;;28.93;21.80;;;-7.30;99.90;;;;;;5095623;28;20264;-63
2024/01/10 08:12:07;;;;;;;22.30;19.80;;;-7.30;99.90;;;;;;5095940;28;20201;-62
2024/01/10 08:14:33;;;;;;;31.87;22.10;;;-7.20;99.90;;;;;;5094365;28;20662;-63
2024/01/10 08:17:00;;;;;;;33.67;22.80;;;-7.20;99.90;;;;;;5094736;28;20292;-63
2024/01/10 08:19:26;;;;;;;24.47;20.83;;;-7.10;99.90;;;;;;5095207;28;20154;-62
2024/01/10 08:21:53;;;;;;;28.70;23.27;;;-7.10;99.90;;;;;;5095268;28;20184;-63
2024/01/10 08:24:20;;;;;;;28.20;22.70;;;-7.10;99.90;;;;;;5095447;28;20551;-62
2024/01/10 08:26:49;;;;;;;32.03;22.27;;;-7.10;99.90;;;;;;5095033;28;20203;-62
2024/01/10 08:29:15;;;;;;;30.87;22.70;;;-7.00;99.90;;;;;;5095234;28;20230;-62
2024/01/10 08:31:41;;;;;;;29.03;22.50;;;-6.90;99.90;;;;;;5093739;28;20620;-62
2024/01/10 08:34:06;;;;;;;32.83;23.80;;;-6.90;99.90;;;;;;5094932;28;20169;-63
2024/01/10 08:36:32;;;;;;;35.77;24.83;;;-6.80;99.90;;;;;;5094782;28;20250;-63
2024/01/10 08:38:58;;;;;;;27.30;21.73;;;-6.70;99.90;;;;;;5094739;28;20247;-63
2024/01/10 08:41:23;;;;;;;29.40;23.10;;;-6.60;99.90;;;;;;5094798;28;20165;-63
2024/01/10 08:43:49;;;;;;;35.40;24.30;;;-6.50;99.90;;;;;;5094944;28;20187;-63
2024/01/10 08:46:15;;;;;;;30.13;22.77;;;-6.40;99.90;;;;;;5094346;28;20185;-63
2024/01/10 08:48:41;;;;;;;31.87;23.03;;;-6.30;99.90;;;;;;5094976;28;20207;-62
2024/01/10 08:51:09;;;;;;;30.07;23.60;;;-6.30;99.90;;;;;;5094706;28;20269;-62
2024/01/10 08:53:35;;;;;;;26.97;22.13;;;-6.20;99.90;;;;;;5094879;28;20180;-63
2024/01/10 08:56:01;;;;;;;27.27;21.30;;;-6.10;99.90;;;;;;5094731;28;20173;-62
2024/01/10 08:58:26;;;;;;;29.83;22.63;;;-6.10;99.90;;;;;;5094236;28;20559;-64
2024/01/10 09:00:52;;;;;;;32.73;24.40;;;-6.00;99.90;;;;;;5094095;28;20634;-63
2024/01/10 09:03:18;;;;;;;33.80;23.50;;;-5.90;99.90;;;;;;5094463;28;20256;-63
2024/01/10 09:05:43;;;;;;;31.37;23.23;;;-5.90;99.90;;;;;;5095596;28;20185;-63
2024/01/10 09:08:09;;;;;;;31.00;23.70;;;-5.80;99.90;;;;;;5094612;28;20201;-62
2024/01/10 09:10:35;;;;;;;35.97;23.77;;;-5.70;99.90;;;;;;5094781;28;20653;-63
2024/01/10 09:13:01;;;;;;;33.17;24.37;;;-5.70;99.90;;;;;;5094388;28;20201;-63
2024/01/10 09:15:26;;;;;;;29.43;22.67;;;-5.60;99.90;;;;;;5094627;28;20602;-63
2024/01/10 09:17:52;;;;;;;32.47;23.07;;;-5.50;99.90;;;;;;5094331;28;20677;-63
2024/01/10 09:20:18;;;;;;;34.53;22.97;;;-5.50;99.90;;;;;;5094394;28;20181;-63
2024/01/10 09:22:44;;;;;;;28.33;22.27;;;-5.40;99.90;;;;;;5094524;28;20362;-63
2024/01/10 09:25:12;;;;;;;31.33;23.40;;;-5.40;99.90;;;;;;5094236;28;20204;-63
2024/01/10 09:27:41;;;;;;;31.50;23.20;;;-5.30;99.90;;;;;;5093912;28;20696;-62
2024/01/10 09:30:08;;;;;;;29.17;21.27;;;-5.30;99.90;;;;;;5094600;28;20180;-63
2024/01/10 09:32:35;;;;;;;34.20;24.47;;;-5.30;99.90;;;;;;5093655;28;20197;-63
2024/01/10 09:35:01;;;;;;;33.13;23.63;;;-5.20;99.90;;;;;;5094496;28;20165;-63
2024/01/10 09:37:26;;;;;;;32.53;23.87;;;-5.20;99.90;;;;;;5094120;28;20196;-63
2024/01/10 09:39:53;;;;;;;36.20;24.37;;;-5.10;99.90;;;;;;5093543;28;20177;-63
2024/01/10 09:42:21;;;;;;;33.83;24.53;;;-5.10;99.90;;;;;;5092138;28;20267;-63
2024/01/10 09:44:47;;;;;;;38.37;25.87;;;-5.00;99.90;;;;;;5093836;28;20177;-63
2024/01/10 09:47:16;;;;;;;32.57;24.23;;;-5.00;99.90;;;;;;5092679;28;20666;-63
2024/01/10 09:49:44;;;;;;;32.80;25.03;;;-4.90;99.90;;;;;;5094025;28;20189;-63
2024/01/10 09:52:15;;;;;;;36.83;25.67;;;-4.70;99.90;;;;;;5093675;28;20808;-63
2024/01/10 09:54:43;;;;;;;29.40;23.40;;;-4.60;99.90;;;;;;5094030;28;20181;-63
2024/01/10 09:57:09;;;;;;;32.57;24.83;;;-4.40;99.90;;;;;;5093453;28;20574;-63
2024/01/10 09:59:35;;;;;;;36.63;25.00;;;-4.30;99.90;;;;;;5093888;28;20177;-63
2024/01/10 10:02:04;;;;;;;30.07;23.30;;;-4.10;93.70;;;;;;5093806;28;20610;-63
2024/01/10 10:04:31;;;;;;;34.53;24.70;;;-4.00;81.80;;;;;;5093806;28;20178;-63
2024/01/10 10:07:03;;;;;;;32.90;23.80;;;-3.90;55.60;;;;;;5093840;28;20193;-63
2024/01/10 10:09:32;;;;;;;30.10;24.00;;;-3.80;56.90;;;;;;5094136;28;20553;-63
2024/01/10 10:11:57;;;;;;;37.20;24.43;;;-3.70;77.90;;;;;;5092731;28;20228;-63
2024/01/10 10:14:26;;;;;;;35.00;26.47;;;-3.50;54.40;;;;;;5094043;28;20192;-62
2024/01/10 10:16:52;;;;;;;37.83;25.87;;;-3.40;34.40;;;;;;5093091;28;20193;-62
2024/01/10 10:19:24;;;;;;;44.43;25.57;;;-3.40;56.40;;;;;;5093587;28;20181;-62
2024/01/10 10:21:50;;;;;;;28.27;24.33;;;-3.30;40.40;;;;;;5093284;28;20168;-62
2024/01/10 10:24:17;;;;;;;39.10;24.60;;;-3.20;9.20;;;;;;5094107;28;20580;-63
2024/01/10 10:26:43;;;;;;;34.40;24.60;;;-3.00;11.90;;;;;;5093026;28;20193;-62
2024/01/10 10:29:10;;;;;;;41.63;24.53;;;-2.90;4.80;;;;;;5093231;28;20249;-62
2024/01/10 10:31:35;;;;;;;34.17;25.53;;;-2.90;1.00;;;;;;5092993;28;20205;-63
2024/01/10 10:34:02;;;;;;;34.10;25.97;;;-2.80;6.10;;;;;;5093518;28;20171;-63
2024/01/10 10:36:31;;;;;;;32.50;24.77;;;-2.70;6.00;;;;;;5093639;28;20193;-63
2024/01/10 10:39:01;;;;;;;34.73;25.23;;;-2.60;3.40;;;;;;5093353;28;20656;-63
2024/01/10 10:41:30;;;;;;;32.00;23.83;;;-2.50;13.50;;;;;;5094021;28;20157;-62
2024/01/10 10:43:57;;;;;;;31.97;24.60;;;-2.40;1.00;;;;;;5093498;28;20195;-62
2024/01/10 10:46:27;;;;;;;33.30;23.23;;;-2.30;1.00;;;;;;5093270;28;20670;-63
2024/01/10 10:48:54;;;;;;;29.30;22.93;;;-2.20;1.00;;;;;;5093614;28;20649;-63
2024/01/10 10:51:28;;;;;;;83.87;49.90;;;-2.10;1.00;;;;;;5092028;28;20244;-62
2024/01/10 10:53:56;;;;;;;35.93;25.47;;;-2.00;1.00;;;;;;5093416;28;20679;-62
2024/01/10 10:56:23;;;;;;;37.87;25.30;;;-2.10;1.00;;;;;;5095861;28;20201;-62
2024/01/10 10:58:50;;;;;;;33.77;24.50;;;-2.10;1.00;;;;;;5097076;28;20180;-62
2024/01/10 11:01:17;;;;;;;34.27;22.43;;;-2.00;1.00;;;;;;5096646;28;20173;-62
2024/01/10 11:03:44;;;;;;;31.93;23.70;;;-1.80;1.00;;;;;;5096849;28;20174;-62
2024/01/10 11:06:10;;;;;;;34.87;25.93;;;-1.60;1.00;;;;;;5096792;28;20169;-63
2024/01/10 11:08:44;;;;;;;33.23;24.97;;;-1.30;1.00;;;;;;5096990;28;20173;-62
2024/01/10 11:12:06;;;;;;;36.53;24.07;;;-1.00;1.00;;;;;;5096826;28;20161;-62
2024/01/10 11:15:02;;;;;;;34.83;24.37;;;-0.80;1.00;;;;;;5093024;28;20181;-63
2024/01/10 11:18:26;;;;;;;40.73;24.77;;;-0.70;1.00;;;;;;5096349;28;20242;-62
2024/01/10 11:20:52;;;;;;;32.37;24.33;;;-0.50;1.00;;;;;;5070967;28;20247;-63
2024/01/10 11:23:30;;;;;;;36.60;23.70;;;-0.20;1.00;;;;;;5096916;28;20544;-63
2024/01/10 11:25:58;;;;;;;34.13;24.57;;;-0.10;1.00;;;;;;5096694;28;20157;-63
2024/01/10 11:28:27;;;;;;;35.90;25.00;;;0.10;1.00;;;;;;5096417;28;20197;-62
2024/01/10 11:30:53;;;;;;;35.93;23.83;;;0.30;1.00;;;;;;5096528;28;20200;-62
2024/01/10 11:33:32;;;;;;;34.17;24.27;;;0.30;1.00;;;;;;5095871;28;20174;-63
2024/01/10 11:36:17;;;;;;;37.40;24.07;;;0.40;1.00;;;;;;5096173;28;20179;-63
2024/01/10 11:38:56;;;;;;;33.60;24.23;;;0.40;1.00;;;;;;5096186;28;20622;-62
2024/01/10 11:41:27;;;;;;;38.23;24.40;;;0.70;1.00;;;;;;5096580;28;20173;-63
2024/01/10 11:44:17;;;;;;;35.47;24.40;;;0.80;1.00;;;;;;5096048;28;20207;-63
2024/01/10 11:46:43;;;;;;;37.40;25.77;;;0.80;1.00;;;;;;5095590;28;20201;-63
2024/01/10 11:49:11;;;;;;;37.57;24.47;;;0.90;1.00;;;;;;5095969;28;20173;-63
2024/01/10 11:51:37;;;;;;;33.63;23.17;;;1.10;1.00;;;;;;5095733;28;20213;-62
2024/01/10 11:54:03;;;;;;;33.00;23.50;;;1.00;1.00;;;;;;5096032;28;20630;-62
2024/01/10 11:56:41;;;;;;;37.43;24.30;;;1.20;1.00;;;;;;5095708;28;20185;-63
2024/01/10 11:59:10;;;;;;;41.23;24.03;;;1.40;99.90;;;;;;5095708;28;20169;-62
2024/01/10 12:01:37;;;;;;;35.73;24.20;;;1.50;1.00;;;;;;5095290;28;20630;-63
2024/01/10 12:04:06;;;;;;;36.03;23.37;;;1.60;99.90;;;;;;5095967;28;20287;-62
2024/01/10 12:06:34;;;;;;;38.43;25.27;;;1.70;99.90;;;;;;5096098;28;20192;-63
2024/01/10 12:09:04;;;;;;;36.67;23.80;;;2.00;99.90;;;;;;5095980;28;20691;-62
2024/01/10 12:11:30;;;;;;;35.57;24.63;;;2.20;99.90;;;;;;5096577;28;20556;-63
2024/01/10 12:13:57;;;;;;;33.07;24.17;;;2.10;1.00;;;;;;5095700;28;20170;-63
2024/01/10 12:16:23;;;;;;;32.70;23.17;;;2.30;1.00;;;;;;5095201;28;20185;-62
2024/01/10 12:18:50;;;;;;;33.70;24.33;;;2.40;99.90;;;;;;5095698;28;20676;-63
2024/01/10 12:21:17;;;;;;;32.57;22.27;;;2.40;99.90;;;;;;5095516;28;20169;-63
2024/01/10 12:23:43;;;;;;;30.70;23.20;;;2.40;99.90;;;;;;5095631;28;20170;-63
2024/01/10 12:26:13;;;;;;;30.60;23.83;;;2.50;99.90;;;;;;5095453;28;20189;-62
2024/01/10 12:28:40;;;;;;;30.53;22.83;;;2.60;1.00;;;;;;5112120;28;20191;-63